sensor_id;sensor_type;location;lat;lon;timestamp;pressure;altitude;pressure_sealevel;temperature;humidity
24858;BME280;12935;50.782;6.074;2022-12-07T00:01:18;99652.94;;;4.04;100.00
24858;BME280;12935;50.782;6.074;2022-12-07T00:03:44;99660.53;;;4.14;100.00
24858;BME280;12935;50.782;6.074;2022-12-07T00:06:12;99651.84;;;4.21;100.00
24858;BME280;12935;50.782;6.074;2022-12-07T00:08:38;99653.31;;;4.18;100.00
24858;BME280;12935;50.782;6.074;2022-12-07T00:11:12;99655.47;;;4.13;100.00
24858;BME280;12935;50.782;6.074;2022-12-07T00:13:38;99655.47;;;4.13;100.00
24858;BME280;12935;50.782;6.074;2022-12-07T00:16:15;99642.13;;;4.04;100.00
24858;BME280;12935;50.782;6.074;2022-12-07T00:18:41;99642.66;;;4.26;100.00
24858;BME280;12935;50.782;6.074;2022-12-07T00:21:30;99645.09;;;4.15;100.00
24858;BME280;12935;50.782;6.074;2022-12-07T00:23:56;99640.38;;;4.12;100.00
24858;BME280;12935;50.782;6.074;2022-12-07T00:26:24;99627.94;;;4.07;100.00
24858;BME280;12935;50.782;6.074;2022-12-07T00:28:55;99637.69;;;4.12;100.00
24858;BME280;12935;50.782;6.074;2022-12-07T00:31:23;99632.19;;;4.08;100.00
24858;BME280;12935;50.782;6.074;2022-12-07T00:33:49;99631.41;;;4.08;100.00
24858;BME280;12935;50.782;6.074;2022-12-07T00:36:17;99632.28;;;4.12;100.00
24858;BME280;12935;50.782;6.074;2022-12-07T00:38:43;99626.78;;;4.08;100.00
24858;BME280;12935;50.782;6.074;2022-12-07T00:41:13;99627.56;;;4.09;100.00
24858;BME280;12935;50.782;6.074;2022-12-07T00:43:39;99616.84;;;4.12;100.00
24858;BME280;12935;50.782;6.074;2022-12-07T00:46:05;99624.50;;;4.10;100.00
24858;BME280;12935;50.782;6.074;2022-12-07T00:48:31;99612.56;;;4.11;100.00
24858;BME280;12935;50.782;6.074;2022-12-07T00:50:56;99619.47;;;4.09;100.00
24858;BME280;12935;50.782;6.074;2022-12-07T00:53:22;99619.03;;;4.07;100.00
24858;BME280;12935;50.782;6.074;2022-12-07T00:55:47;99618.69;;;4.08;100.00
24858;BME280;12935;50.782;6.074;2022-12-07T00:58:13;99622.88;;;4.06;100.00
24858;BME280;12935;50.782;6.074;2022-12-07T01:00:41;99616.13;;;4.00;100.00
24858;BME280;12935;50.782;6.074;2022-12-07T01:03:08;99614.22;;;4.00;100.00
24858;BME280;12935;50.782;6.074;2022-12-07T01:05:33;99613.88;;;4.02;100.00
24858;BME280;12935;50.782;6.074;2022-12-07T01:07:59;99619.06;;;3.95;100.00
24858;BME280;12935;50.782;6.074;2022-12-07T01:10:25;99612.72;;;4.03;100.00
24858;BME280;12935;50.782;6.074;2022-12-07T01:12:51;99621.47;;;4.12;100.00
24858;BME280;12935;50.782;6.074;2022-12-07T01:15:16;99618.25;;;4.06;100.00
24858;BME280;12935;50.782;6.074;2022-12-07T01:17:41;99619.47;;;4.09;100.00
24858;BME280;12935;50.782;6.074;2022-12-07T01:20:07;99625.72;;;4.13;100.00
24858;BME280;12935;50.782;6.074;2022-12-07T01:22:39;99623.31;;;4.08;100.00
24858;BME280;12935;50.782;6.074;2022-12-07T01:25:06;99619.38;;;4.05;100.00
24858;BME280;12935;50.782;6.074;2022-12-07T01:27:33;99627.13;;;4.07;100.00
24858;BME280;12935;50.782;6.074;2022-12-07T01:29:59;99619.63;;;4.00;100.00
24858;BME280;12935;50.782;6.074;2022-12-07T01:32:24;99615.34;;;3.99;100.00
24858;BME280;12935;50.782;6.074;2022-12-07T01:34:50;99613.63;;;4.07;100.00
24858;BME280;12935;50.782;6.074;2022-12-07T01:37:15;99619.38;;;4.05;100.00
24858;BME280;12935;50.782;6.074;2022-12-07T01:39:40;99615.78;;;4.01;100.00
24858;BME280;12935;50.782;6.074;2022-12-07T01:42:10;99622.56;;;3.95;100.00
24858;BME280;12935;50.782;6.074;2022-12-07T01:47:40;99638.38;;;3.93;100.00
24858;BME280;12935;50.782;6.074;2022-12-07T01:50:06;99626.22;;;3.87;100.00
24858;BME280;12935;50.782;6.074;2022-12-07T01:52:33;99633.97;;;3.88;100.00
24858;BME280;12935;50.782;6.074;2022-12-07T01:55:02;99623.97;;;3.89;100.00
24858;BME280;12935;50.782;6.074;2022-12-07T01:57:30;99632.50;;;3.91;100.00
24858;BME280;12935;50.782;6.074;2022-12-07T01:59:56;99625.97;;;3.92;100.00
24858;BME280;12935;50.782;6.074;2022-12-07T02:02:29;99625.53;;;3.90;100.00
24858;BME280;12935;50.782;6.074;2022-12-07T02:04:57;99624.84;;;3.93;100.00
24858;BME280;12935;50.782;6.074;2022-12-07T02:07:25;99624.22;;;4.00;100.00
24858;BME280;12935;50.782;6.074;2022-12-07T02:09:50;99618.69;;;4.08;100.00
24858;BME280;12935;50.782;6.074;2022-12-07T02:12:16;99622.75;;;4.02;100.00
24858;BME280;12935;50.782;6.074;2022-12-07T02:14:41;99604.44;;;3.96;100.00
24858;BME280;12935;50.782;6.074;2022-12-07T02:17:14;99608.69;;;3.97;100.00
24858;BME280;12935;50.782;6.074;2022-12-07T02:20:03;99609.31;;;3.90;100.00
24858;BME280;12935;50.782;6.074;2022-12-07T02:22:52;99608.88;;;3.88;100.00
24858;BME280;12935;50.782;6.074;2022-12-07T02:29:18;99604.25;;;3.88;100.00
24858;BME280;12935;50.782;6.074;2022-12-07T02:31:51;99594.91;;;3.86;100.00
24858;BME280;12935;50.782;6.074;2022-12-07T02:36:54;99602.44;;;3.93;100.00
24858;BME280;12935;50.782;6.074;2022-12-07T02:39:31;99608.09;;;3.87;100.00
24858;BME280;12935;50.782;6.074;2022-12-07T02:42:03;99608.00;;;3.84;100.00
24858;BME280;12935;50.782;6.074;2022-12-07T02:44:31;99597.72;;;3.90;100.00
24858;BME280;12935;50.782;6.074;2022-12-07T02:47:01;99601.78;;;3.83;100.00
24858;BME280;12935;50.782;6.074;2022-12-07T02:49:29;99601.56;;;3.88;100.00
24858;BME280;12935;50.782;6.074;2022-12-07T02:51:55;99603.47;;;3.88;100.00
24858;BME280;12935;50.782;6.074;2022-12-07T02:54:21;99590.63;;;3.85;100.00
24858;BME280;12935;50.782;6.074;2022-12-07T02:56:55;99594.31;;;3.93;100.00
24858;BME280;12935;50.782;6.074;2022-12-07T03:02:44;99591.44;;;4.01;100.00
24858;BME280;12935;50.782;6.074;2022-12-07T03:18:45;99607.31;;;3.87;100.00
24858;BME280;12935;50.782;6.074;2022-12-07T03:21:20;99606.06;;;3.84;100.00
24858;BME280;12935;50.782;6.074;2022-12-07T03:23:52;99607.31;;;3.87;100.00
24858;BME280;12935;50.782;6.074;2022-12-07T03:26:19;99607.66;;;3.85;100.00
24858;BME280;12935;50.782;6.074;2022-12-07T03:28:51;99603.03;;;3.86;100.00
24858;BME280;12935;50.782;6.074;2022-12-07T03:31:25;99599.63;;;3.89;100.00
24858;BME280;12935;50.782;6.074;2022-12-07T03:34:03;99599.44;;;3.82;100.00
24858;BME280;12935;50.782;6.074;2022-12-07T03:36:36;99601.00;;;3.83;100.00
24858;BME280;12935;50.782;6.074;2022-12-07T03:39:14;99593.78;;;3.87;100.00
24858;BME280;12935;50.782;6.074;2022-12-07T03:41:41;99597.28;;;3.87;100.00
24858;BME280;12935;50.782;6.074;2022-12-07T03:44:07;99594.56;;;3.87;100.00
24858;BME280;12935;50.782;6.074;2022-12-07T03:46:57;99595.34;;;3.88;100.00
24858;BME280;12935;50.782;6.074;2022-12-07T03:57:20;99596.94;;;3.89;100.00
24858;BME280;12935;50.782;6.074;2022-12-07T03:59:47;99603.91;;;3.90;100.00
24858;BME280;12935;50.782;6.074;2022-12-07T04:02:13;99595.47;;;3.92;100.00
24858;BME280;12935;50.782;6.074;2022-12-07T04:04:40;99572.06;;;3.83;100.00
24858;BME280;12935;50.782;6.074;2022-12-07T04:07:06;99588.03;;;3.88;100.00
24858;BME280;12935;50.782;6.074;2022-12-07T04:09:31;99590.22;;;3.99;100.00
24858;BME280;12935;50.782;6.074;2022-12-07T04:11:57;99590.84;;;3.92;100.00
24858;BME280;12935;50.782;6.074;2022-12-07T04:14:22;99592.31;;;3.90;100.00
24858;BME280;12935;50.782;6.074;2022-12-07T04:16:53;99582.91;;;3.99;100.00
24858;BME280;12935;50.782;6.074;2022-12-07T04:19:23;99584.38;;;3.97;100.00
24858;BME280;12935;50.782;6.074;2022-12-07T04:21:49;99589.78;;;3.97;100.00
24858;BME280;12935;50.782;6.074;2022-12-07T04:24:14;99590.47;;;3.94;100.00
24858;BME280;12935;50.782;6.074;2022-12-07T04:26:41;99591.97;;;3.91;100.00
24858;BME280;12935;50.782;6.074;2022-12-07T04:29:07;99597.38;;;3.91;100.00
24858;BME280;12935;50.782;6.074;2022-12-07T04:31:32;99593.88;;;3.91;100.00
24858;BME280;12935;50.782;6.074;2022-12-07T04:33:57;99596.31;;;3.96;100.00
24858;BME280;12935;50.782;6.074;2022-12-07T04:36:22;99584.88;;;3.86;100.00
24858;BME280;12935;50.782;6.074;2022-12-07T04:38:48;99578.78;;;3.90;100.00
24858;BME280;12935;50.782;6.074;2022-12-07T04:41:13;99587.53;;;3.99;100.00
24858;BME280;12935;50.782;6.074;2022-12-07T04:43:39;99581.94;;;3.92;100.00
24858;BME280;12935;50.782;6.074;2022-12-07T04:46:04;99582.28;;;3.90;100.00
24858;BME280;12935;50.782;6.074;2022-12-07T04:48:29;99584.53;;;3.88;100.00
24858;BME280;12935;50.782;6.074;2022-12-07T04:50:55;99586.38;;;3.84;100.00
24858;BME280;12935;50.782;6.074;2022-12-07T04:53:20;99582.53;;;3.85;100.00
24858;BME280;12935;50.782;6.074;2022-12-07T04:55:46;99584.34;;;3.81;100.00
24858;BME280;12935;50.782;6.074;2022-12-07T04:58:12;99587.59;;;3.86;100.00
24858;BME280;12935;50.782;6.074;2022-12-07T05:00:38;99578.16;;;3.80;100.00
24858;BME280;12935;50.782;6.074;2022-12-07T05:03:03;99592.22;;;3.86;100.00
24858;BME280;12935;50.782;6.074;2022-12-07T05:05:29;99579.38;;;3.83;100.00
24858;BME280;12935;50.782;6.074;2022-12-07T05:07:54;99586.38;;;3.84;100.00
24858;BME280;12935;50.782;6.074;2022-12-07T05:10:20;99583.50;;;3.77;100.00
24858;BME280;12935;50.782;6.074;2022-12-07T05:12:45;99577.81;;;3.82;100.00
24858;BME280;12935;50.782;6.074;2022-12-07T05:15:11;99578.69;;;3.86;100.00
24858;BME280;12935;50.782;6.074;2022-12-07T05:17:37;99584.28;;;3.77;100.00
24858;BME280;12935;50.782;6.074;2022-12-07T05:20:03;99580.41;;;3.78;100.00
24858;BME280;12935;50.782;6.074;2022-12-07T05:22:29;99585.41;;;3.76;100.00
24858;BME280;12935;50.782;6.074;2022-12-07T05:24:55;99582.72;;;3.76;100.00
24858;BME280;12935;50.782;6.074;2022-12-07T05:27:20;99582.34;;;3.78;100.00
24858;BME280;12935;50.782;6.074;2022-12-07T05:29:46;99577.72;;;3.78;100.00
24858;BME280;12935;50.782;6.074;2022-12-07T05:32:11;99579.38;;;3.83;100.00
24858;BME280;12935;50.782;6.074;2022-12-07T05:34:37;99578.25;;;3.84;100.00
24858;BME280;12935;50.782;6.074;2022-12-07T05:37:02;99580.25;;;3.71;100.00
24858;BME280;12935;50.782;6.074;2022-12-07T05:39:27;99579.97;;;3.61;100.00
24858;BME280;12935;50.782;6.074;2022-12-07T05:41:52;99579.25;;;3.64;100.00
24858;BME280;12935;50.782;6.074;2022-12-07T05:44:36;99581.63;;;3.65;100.00
24858;BME280;12935;50.782;6.074;2022-12-07T05:47:01;99579.59;;;3.62;100.00
24858;BME280;12935;50.782;6.074;2022-12-07T05:49:27;99577.00;;;3.66;100.00
24858;BME280;12935;50.782;6.074;2022-12-07T05:51:52;99575.97;;;3.70;100.00
24858;BME280;12935;50.782;6.074;2022-12-07T05:54:17;99574.75;;;3.68;100.00
24858;BME280;12935;50.782;6.074;2022-12-07T05:56:43;99567.66;;;3.63;100.00
24858;BME280;12935;50.782;6.074;2022-12-07T05:59:08;99571.69;;;3.69;100.00
24858;BME280;12935;50.782;6.074;2022-12-07T06:01:56;99573.84;;;3.64;100.00
24858;BME280;12935;50.782;6.074;2022-12-07T06:04:23;99572.38;;;3.66;100.00
24858;BME280;12935;50.782;6.074;2022-12-07T06:06:49;99569.09;;;3.73;100.00
24858;BME280;12935;50.782;6.074;2022-12-07T06:09:15;99570.03;;;3.65;100.00
24858;BME280;12935;50.782;6.074;2022-12-07T06:11:40;99572.81;;;3.68;100.00
24858;BME280;12935;50.782;6.074;2022-12-07T06:14:25;99583.63;;;3.68;100.00
24858;BME280;12935;50.782;6.074;2022-12-07T06:16:50;99583.53;;;3.65;100.00
24858;BME280;12935;50.782;6.074;2022-12-07T06:19:15;99587.56;;;3.71;100.00
24858;BME280;12935;50.782;6.074;2022-12-07T06:21:41;99579.47;;;3.71;100.00
24858;BME280;12935;50.782;6.074;2022-12-07T06:24:07;99587.81;;;3.66;100.00
24858;BME280;12935;50.782;6.074;2022-12-07T06:26:34;99586.94;;;3.62;100.00
24858;BME280;12935;50.782;6.074;2022-12-07T06:28:59;99587.13;;;3.69;100.00
24858;BME280;12935;50.782;6.074;2022-12-07T06:31:24;99585.19;;;3.69;100.00
24858;BME280;12935;50.782;6.074;2022-12-07T06:33:49;99581.28;;;3.67;100.00
24858;BME280;12935;50.782;6.074;2022-12-07T06:36:15;99587.31;;;3.76;100.00
24858;BME280;12935;50.782;6.074;2022-12-07T06:38:40;99587.56;;;3.71;100.00
24858;BME280;12935;50.782;6.074;2022-12-07T06:41:05;99586.44;;;3.72;100.00
24858;BME280;12935;50.782;6.074;2022-12-07T06:43:31;99588.69;;;3.70;100.00
24858;BME280;12935;50.782;6.074;2022-12-07T06:45:57;99592.19;;;3.70;100.00
24858;BME280;12935;50.782;6.074;2022-12-07T06:48:22;99587.66;;;3.74;100.00
24858;BME280;12935;50.782;6.074;2022-12-07T06:50:48;99593.84;;;3.75;100.00
24858;BME280;12935;50.782;6.074;2022-12-07T06:53:13;99596.13;;;3.73;100.00
24858;BME280;12935;50.782;6.074;2022-12-07T06:55:38;99591.94;;;3.75;100.00
24858;BME280;12935;50.782;6.074;2022-12-07T06:58:04;99582.72;;;3.76;100.00
24858;BME280;12935;50.782;6.074;2022-12-07T07:00:29;99589.31;;;3.79;100.00
24858;BME280;12935;50.782;6.074;2022-12-07T07:02:55;99586.03;;;3.85;100.00
24858;BME280;12935;50.782;6.074;2022-12-07T07:05:20;99584.28;;;3.77;100.00
24858;BME280;12935;50.782;6.074;2022-12-07T07:07:50;99591.59;;;3.77;100.00
24858;BME280;12935;50.782;6.074;2022-12-07T07:10:16;99591.06;;;3.71;100.00
24858;BME280;12935;50.782;6.074;2022-12-07T07:12:41;99588.78;;;3.73;100.00
24858;BME280;12935;50.782;6.074;2022-12-07T07:15:07;99598.81;;;3.73;100.00
24858;BME280;12935;50.782;6.074;2022-12-07T07:17:32;99591.84;;;3.72;100.00
24858;BME280;12935;50.782;6.074;2022-12-07T07:19:58;99596.47;;;3.71;100.00
24858;BME280;12935;50.782;6.074;2022-12-07T07:22:23;99597.25;;;3.72;100.00
24858;BME280;12935;50.782;6.074;2022-12-07T07:24:48;99593.75;;;3.71;100.00
24858;BME280;12935;50.782;6.074;2022-12-07T07:27:14;99605.00;;;3.73;100.00
24858;BME280;12935;50.782;6.074;2022-12-07T07:29:39;99595.47;;;3.64;100.00
24858;BME280;12935;50.782;6.074;2022-12-07T07:32:04;99594.78;;;3.67;100.00
24858;BME280;12935;50.782;6.074;2022-12-07T07:34:29;99593.09;;;3.62;100.00
24858;BME280;12935;50.782;6.074;2022-12-07T07:36:55;99584.97;;;3.74;100.00
24858;BME280;12935;50.782;6.074;2022-12-07T07:39:20;99594.81;;;3.82;100.00
24858;BME280;12935;50.782;6.074;2022-12-07T07:41:46;99590.16;;;3.67;100.00
24858;BME280;12935;50.782;6.074;2022-12-07T07:44:11;99597.25;;;3.72;100.00
24858;BME280;12935;50.782;6.074;2022-12-07T07:46:37;99601.06;;;3.71;100.00
24858;BME280;12935;50.782;6.074;2022-12-07T07:49:03;99597.25;;;3.72;100.00
24858;BME280;12935;50.782;6.074;2022-12-07T07:51:28;99605.63;;;3.82;100.00
24858;BME280;12935;50.782;6.074;2022-12-07T07:53:53;99600.84;;;3.76;100.00
24858;BME280;12935;50.782;6.074;2022-12-07T07:56:19;99601.91;;;3.87;100.00
24858;BME280;12935;50.782;6.074;2022-12-07T07:58:44;99607.53;;;3.82;100.00
24858;BME280;12935;50.782;6.074;2022-12-07T08:01:09;99607.09;;;3.80;100.00
24858;BME280;12935;50.782;6.074;2022-12-07T08:03:35;99609.88;;;3.68;100.00
24858;BME280;12935;50.782;6.074;2022-12-07T08:06:04;99610.53;;;3.65;100.00
24858;BME280;12935;50.782;6.074;2022-12-07T08:08:30;99600.09;;;3.63;100.00
24858;BME280;12935;50.782;6.074;2022-12-07T08:10:56;99614.69;;;3.74;100.00
24858;BME280;12935;50.782;6.074;2022-12-07T08:13:21;99605.53;;;3.79;100.00
24858;BME280;12935;50.782;6.074;2022-12-07T08:15:47;99607.81;;;3.77;100.00
24858;BME280;12935;50.782;6.074;2022-12-07T08:18:14;99619.25;;;3.86;100.00
24858;BME280;12935;50.782;6.074;2022-12-07T08:20:42;99608.91;;;4.04;100.00
24858;BME280;12935;50.782;6.074;2022-12-07T08:23:08;99617.19;;;4.11;100.00
24858;BME280;12935;50.782;6.074;2022-12-07T08:25:34;99611.94;;;4.02;100.00
24858;BME280;12935;50.782;6.074;2022-12-07T08:27:59;99615.78;;;4.01;100.00
24858;BME280;12935;50.782;6.074;2022-12-07T08:30:28;99611.41;;;3.97;100.00
24858;BME280;12935;50.782;6.074;2022-12-07T08:32:53;99612.03;;;3.90;100.00
24858;BME280;12935;50.782;6.074;2022-12-07T08:35:18;99616.81;;;3.97;100.00
24858;BME280;12935;50.782;6.074;2022-12-07T08:37:44;99612.41;;;4.20;100.00
24858;BME280;12935;50.782;6.074;2022-12-07T08:40:11;99621.22;;;4.33;100.00
24858;BME280;12935;50.782;6.074;2022-12-07T08:42:40;99615.47;;;4.18;100.00
24858;BME280;12935;50.782;6.074;2022-12-07T08:45:08;99616.25;;;4.19;100.00
24858;BME280;12935;50.782;6.074;2022-12-07T08:47:35;99615.53;;;4.06;100.00
24858;BME280;12935;50.782;6.074;2022-12-07T08:50:03;99615.78;;;4.01;100.00
24858;BME280;12935;50.782;6.074;2022-12-07T08:52:30;99615.94;;;3.93;100.00
24858;BME280;12935;50.782;6.074;2022-12-07T08:54:56;99614.09;;;3.97;100.00
24858;BME280;12935;50.782;6.074;2022-12-07T08:57:22;99621.69;;;3.91;100.00
24858;BME280;12935;50.782;6.074;2022-12-07T08:59:47;99628.69;;;3.92;100.00
24858;BME280;12935;50.782;6.074;2022-12-07T09:02:12;99620.47;;;3.88;100.00
24858;BME280;12935;50.782;6.074;2022-12-07T09:04:38;99627.00;;;3.87;100.00
24858;BME280;12935;50.782;6.074;2022-12-07T09:07:03;99626.81;;;3.80;100.00
24858;BME280;12935;50.782;6.074;2022-12-07T09:09:29;99625.84;;;3.73;100.00
24858;BME280;12935;50.782;6.074;2022-12-07T09:11:54;99629.00;;;3.75;100.00
24858;BME280;12935;50.782;6.074;2022-12-07T09:14:20;99633.72;;;3.66;100.00
24858;BME280;12935;50.782;6.074;2022-12-07T09:16:45;99626.63;;;3.73;100.00
24858;BME280;12935;50.782;6.074;2022-12-07T09:19:10;99625.97;;;3.92;100.00
24858;BME280;12935;50.782;6.074;2022-12-07T09:21:36;99629.03;;;3.91;100.00
24858;BME280;12935;50.782;6.074;2022-12-07T09:24:01;99629.97;;;3.98;100.00
24858;BME280;12935;50.782;6.074;2022-12-07T09:26:26;99636.88;;;4.11;100.00
24858;BME280;12935;50.782;6.074;2022-12-07T09:28:52;99634.72;;;4.17;100.00
24858;BME280;12935;50.782;6.074;2022-12-07T09:31:17;99638.59;;;4.32;100.00
24858;BME280;12935;50.782;6.074;2022-12-07T09:33:42;99646.88;;;4.23;100.00
24858;BME280;12935;50.782;6.074;2022-12-07T09:36:08;99644.25;;;4.27;100.00
24858;BME280;12935;50.782;6.074;2022-12-07T09:38:34;99645.56;;;4.33;100.00
24858;BME280;12935;50.782;6.074;2022-12-07T09:41:07;99646.53;;;4.25;100.00
24858;BME280;12935;50.782;6.074;2022-12-07T09:43:34;99640.59;;;4.35;100.00
24858;BME280;12935;50.782;6.074;2022-12-07T09:46:00;99635.97;;;4.19;100.00
24858;BME280;12935;50.782;6.074;2022-12-07T09:48:31;99626.88;;;4.28;100.00
24858;BME280;12935;50.782;6.074;2022-12-07T09:50:58;99624.81;;;4.37;100.00
24858;BME280;12935;50.782;6.074;2022-12-07T09:53:28;99627.50;;;4.68;100.00
24858;BME280;12935;50.782;6.074;2022-12-07T09:55:55;99622.06;;;4.84;100.00
24858;BME280;12935;50.782;6.074;2022-12-07T09:58:23;99627.59;;;5.07;100.00
24858;BME280;12935;50.782;6.074;2022-12-07T10:00:53;99624.97;;;5.10;100.00
24858;BME280;12935;50.782;6.074;2022-12-07T10:03:21;99627.75;;;4.79;100.00
24858;BME280;12935;50.782;6.074;2022-12-07T10:05:49;99627.50;;;4.52;100.00
24858;BME280;12935;50.782;6.074;2022-12-07T10:08:15;99623.47;;;4.31;100.00
24858;BME280;12935;50.782;6.074;2022-12-07T10:10:43;99621.41;;;4.24;100.00
24858;BME280;12935;50.782;6.074;2022-12-07T10:13:11;99618.50;;;4.17;100.00
24858;BME280;12935;50.782;6.074;2022-12-07T10:18:32;99615.03;;;4.48;100.00
24858;BME280;12935;50.782;6.074;2022-12-07T10:24:01;99613.97;;;4.37;100.00
24858;BME280;12935;50.782;6.074;2022-12-07T10:26:50;99615.91;;;4.36;100.00
24858;BME280;12935;50.782;6.074;2022-12-07T10:29:26;99605.97;;;4.56;100.00
24858;BME280;12935;50.782;6.074;2022-12-07T10:34:27;99603.75;;;4.62;100.00
24858;BME280;12935;50.782;6.074;2022-12-07T10:39:50;99605.34;;;4.98;100.00
24858;BME280;12935;50.782;6.074;2022-12-07T10:42:20;99610.28;;;4.76;100.00
24858;BME280;12935;50.782;6.074;2022-12-07T10:44:46;99608.00;;;4.78;100.00
24858;BME280;12935;50.782;6.074;2022-12-07T10:47:38;99606.91;;;4.64;100.00
24858;BME280;12935;50.782;6.074;2022-12-07T10:53:35;99583.25;;;4.29;100.00
24858;BME280;12935;50.782;6.074;2022-12-07T11:01:54;99571.31;;;4.30;100.00
24858;BME280;12935;50.782;6.074;2022-12-07T11:04:33;99576.22;;;4.40;100.00
24858;BME280;12935;50.782;6.074;2022-12-07T11:15:19;99553.78;;;4.75;100.00
24858;BME280;12935;50.782;6.074;2022-12-07T11:18:14;99545.41;;;4.80;100.00
24858;BME280;12935;50.782;6.074;2022-12-07T11:34:46;99534.94;;;5.36;100.00
24858;BME280;12935;50.782;6.074;2022-12-07T11:37:17;99522.97;;;5.37;100.00
24858;BME280;12935;50.782;6.074;2022-12-07T11:40:05;99507.59;;;5.03;100.00
24858;BME280;12935;50.782;6.074;2022-12-07T11:42:41;99516.22;;;5.08;100.00
24858;BME280;12935;50.782;6.074;2022-12-07T11:45:16;99519.16;;;5.19;100.00
24858;BME280;12935;50.782;6.074;2022-12-07T11:47:51;99515.59;;;5.15;100.00
24858;BME280;12935;50.782;6.074;2022-12-07T11:50:52;99522.41;;;5.09;100.00
24858;BME280;12935;50.782;6.074;2022-12-07T12:04:16;99518.13;;;5.08;100.00
24858;BME280;12935;50.782;6.074;2022-12-07T12:06:44;99517.56;;;4.99;100.00
24858;BME280;12935;50.782;6.074;2022-12-07T12:09:22;99515.78;;;5.06;100.00
24858;BME280;12935;50.782;6.074;2022-12-07T12:22:43;99500.53;;;4.98;100.00
24858;BME280;12935;50.782;6.074;2022-12-07T12:25:23;99496.25;;;4.97;100.00
24858;BME280;12935;50.782;6.074;2022-12-07T12:27:50;99494.53;;;4.70;100.00
24858;BME280;12935;50.782;6.074;2022-12-07T12:30:36;99495.69;;;4.69;100.00
24858;BME280;12935;50.782;6.074;2022-12-07T12:33:14;99488.34;;;4.69;100.00
24858;BME280;12935;50.782;6.074;2022-12-07T12:35:41;99491.81;;;4.89;100.00
24858;BME280;12935;50.782;6.074;2022-12-07T12:38:31;99490.97;;;5.04;100.00
24858;BME280;12935;50.782;6.074;2022-12-07T12:40:59;99480.81;;;4.98;100.00
24858;BME280;12935;50.782;6.074;2022-12-07T12:43:51;99478.53;;;5.00;100.00
24858;BME280;12935;50.782;6.074;2022-12-07T12:49:16;99476.16;;;5.17;100.00
24858;BME280;12935;50.782;6.074;2022-12-07T12:51:58;99476.38;;;5.28;100.00
24858;BME280;12935;50.782;6.074;2022-12-07T12:54:26;99474.28;;;5.41;100.00
24858;BME280;12935;50.782;6.074;2022-12-07T12:59:34;99472.91;;;5.50;100.00
24858;BME280;12935;50.782;6.074;2022-12-07T13:02:32;99463.94;;;5.46;100.00
24858;BME280;12935;50.782;6.074;2022-12-07T13:13:00;99465.59;;;5.32;100.00
24858;BME280;12935;50.782;6.074;2022-12-07T13:15:52;99463.34;;;5.14;100.00
24858;BME280;12935;50.782;6.074;2022-12-07T13:20:59;99460.84;;;5.06;100.00
24858;BME280;12935;50.782;6.074;2022-12-07T13:28:47;99460.47;;;5.26;100.00
24858;BME280;12935;50.782;6.074;2022-12-07T13:31:32;99453.63;;;5.33;100.00
24858;BME280;12935;50.782;6.074;2022-12-07T13:33:59;99447.56;;;5.20;100.00
24858;BME280;12935;50.782;6.074;2022-12-07T13:36:38;99441.44;;;5.23;100.00
24858;BME280;12935;50.782;6.074;2022-12-07T13:39:21;99432.94;;;5.24;100.00
24858;BME280;12935;50.782;6.074;2022-12-07T13:41:57;99438.94;;;5.34;100.00
24858;BME280;12935;50.782;6.074;2022-12-07T13:44:25;99433.63;;;5.18;100.00
24858;BME280;12935;50.782;6.074;2022-12-07T13:47:03;99433.31;;;5.23;100.00
24858;BME280;12935;50.782;6.074;2022-12-07T13:49:37;99430.75;;;5.30;100.00
24858;BME280;12935;50.782;6.074;2022-12-07T13:52:18;99432.97;;;5.05;100.00
24858;BME280;12935;50.782;6.074;2022-12-07T13:57:30;99425.19;;;5.04;100.00
24858;BME280;12935;50.782;6.074;2022-12-07T13:59:58;99423.56;;;5.18;100.00
24858;BME280;12935;50.782;6.074;2022-12-07T14:02:32;99416.78;;;5.09;100.00
24858;BME280;12935;50.782;6.074;2022-12-07T14:08:02;99417.72;;;5.16;100.00
24858;BME280;12935;50.782;6.074;2022-12-07T14:10:40;99411.03;;;5.10;100.00
24858;BME280;12935;50.782;6.074;2022-12-07T14:13:34;99404.28;;;5.23;100.00
24858;BME280;12935;50.782;6.074;2022-12-07T14:16:15;99404.22;;;5.20;100.00
24858;BME280;12935;50.782;6.074;2022-12-07T14:18:43;99405.91;;;5.05;100.00
24858;BME280;12935;50.782;6.074;2022-12-07T14:23:35;99395.91;;;5.09;100.00
24858;BME280;12935;50.782;6.074;2022-12-07T14:26:20;99388.38;;;4.99;100.00
24858;BME280;12935;50.782;6.074;2022-12-07T14:28:46;99393.22;;;5.09;100.00
24858;BME280;12935;50.782;6.074;2022-12-07T14:31:16;99389.97;;;5.00;100.00
24858;BME280;12935;50.782;6.074;2022-12-07T14:33:42;99388.69;;;4.94;100.00
24858;BME280;12935;50.782;6.074;2022-12-07T14:36:12;99387.59;;;4.99;100.00
24858;BME280;12935;50.782;6.074;2022-12-07T14:38:38;99395.72;;;4.99;100.00
24858;BME280;12935;50.782;6.074;2022-12-07T14:41:04;99388.88;;;5.05;100.00
24858;BME280;12935;50.782;6.074;2022-12-07T14:43:50;99387.28;;;5.04;100.00
24858;BME280;12935;50.782;6.074;2022-12-07T14:46:15;99378.78;;;5.02;100.00
24858;BME280;12935;50.782;6.074;2022-12-07T14:48:40;99382.84;;;4.92;100.00
24858;BME280;12935;50.782;6.074;2022-12-07T14:51:08;99364.03;;;4.80;100.00
24858;BME280;12935;50.782;6.074;2022-12-07T14:53:39;99371.38;;;4.79;100.00
24858;BME280;12935;50.782;6.074;2022-12-07T14:56:05;99363.75;;;4.85;100.00
24858;BME280;12935;50.782;6.074;2022-12-07T14:58:31;99359.97;;;4.89;100.00
24858;BME280;12935;50.782;6.074;2022-12-07T15:00:57;99361.00;;;5.04;100.00
24858;BME280;12935;50.782;6.074;2022-12-07T15:03:22;99356.63;;;4.96;100.00
24858;BME280;12935;50.782;6.074;2022-12-07T15:05:48;99361.66;;;4.98;100.00
24858;BME280;12935;50.782;6.074;2022-12-07T15:08:13;99359.81;;;5.02;100.00
24858;BME280;12935;50.782;6.074;2022-12-07T15:10:39;99350.91;;;5.01;100.00
24858;BME280;12935;50.782;6.074;2022-12-07T15:13:05;99359.56;;;4.87;100.00
24858;BME280;12935;50.782;6.074;2022-12-07T15:15:51;99358.41;;;4.88;100.00
24858;BME280;12935;50.782;6.074;2022-12-07T15:18:17;99357.91;;;4.83;100.00